createdAt,value
2022-09-06T00:00:28.574Z,85.10
2022-09-06T00:02:56.525Z,85.70
2022-09-06T00:05:24.588Z,85.60
2022-09-06T00:07:52.424Z,86.50
2022-09-06T00:10:21.718Z,85.20
2022-09-06T00:12:50.515Z,86.10
2022-09-06T00:15:18.687Z,86.70
2022-09-06T00:17:46.542Z,85.90
2022-09-06T00:20:14.388Z,86.10
2022-09-06T00:22:42.307Z,86.20
2022-09-06T00:25:11.384Z,87.10
2022-09-06T00:27:40.550Z,86.60
2022-09-06T00:30:09.799Z,87.30
2022-09-06T00:32:37.610Z,86.90
2022-09-06T00:35:06.901Z,87.20
2022-09-06T00:37:34.729Z,86.00
2022-09-06T00:40:02.754Z,84.60
2022-09-06T00:42:30.715Z,86.90
2022-09-06T00:45:00.593Z,86.60
2022-09-06T00:47:29.666Z,86.70
2022-09-06T00:49:59.991Z,86.50
2022-09-06T00:52:28.721Z,86.30
2022-09-06T00:54:57.165Z,87.00
2022-09-06T00:57:27.103Z,86.90
2022-09-06T00:59:56.591Z,86.20
2022-09-06T01:02:25.844Z,86.40
2022-09-06T01:04:54.097Z,87.50
2022-09-06T01:07:35.032Z,87.00
2022-09-06T01:10:24.929Z,87.00
2022-09-06T01:13:04.968Z,87.10
2022-09-06T01:15:41.557Z,87.30
2022-09-06T01:18:22.743Z,87.30
2022-09-06T01:21:02.370Z,87.40
2022-09-06T01:24:21.133Z,87.10
2022-09-06T01:27:34.045Z,85.90
2022-09-06T01:30:06.143Z,84.30
2022-09-06T01:32:39.281Z,82.70
2022-09-06T01:35:14.521Z,82.60
2022-09-06T01:37:43.476Z,84.10
2022-09-06T01:40:11.344Z,84.60
2022-09-06T01:42:40.901Z,83.70
2022-09-06T01:45:12.903Z,84.60
2022-09-06T01:47:49.492Z,85.40
2022-09-06T01:50:38.159Z,85.80
2022-09-06T01:53:17.369Z,86.20
2022-09-06T01:55:51.337Z,86.50
2022-09-06T01:58:39.526Z,86.30
2022-09-06T02:01:19.076Z,86.00
2022-09-06T02:03:55.191Z,86.00
2022-09-06T02:06:28.058Z,86.00
2022-09-06T02:09:02.855Z,86.10
2022-09-06T02:11:39.812Z,86.80
2022-09-06T02:14:12.134Z,86.20
2022-09-06T02:16:45.095Z,86.50
2022-09-06T02:19:16.631Z,86.80
2022-09-06T02:21:47.621Z,86.70
2022-09-06T02:24:20.808Z,86.40
2022-09-06T02:26:49.443Z,87.00
2022-09-06T02:29:18.586Z,86.80
2022-09-06T02:31:51.673Z,86.20
2022-09-06T02:34:21.134Z,86.30
2022-09-06T02:36:49.687Z,87.20
2022-09-06T02:39:17.718Z,86.30
2022-09-06T02:41:48.169Z,86.00
2022-09-06T02:44:16.059Z,85.50
2022-09-06T02:46:43.860Z,85.40
2022-09-06T02:49:14.124Z,85.60
2022-09-06T02:51:42.076Z,86.30
2022-09-06T02:54:09.925Z,86.60
2022-09-06T02:56:38.116Z,85.00
2022-09-06T02:59:05.964Z,85.40
2022-09-06T03:01:35.249Z,84.30
2022-09-06T03:04:03.618Z,85.80
2022-09-06T03:06:32.971Z,86.10
2022-09-06T03:09:00.966Z,86.30
2022-09-06T03:11:29.036Z,86.70
2022-09-06T03:13:56.899Z,85.90
2022-09-06T03:16:24.861Z,87.00
2022-09-06T03:18:52.706Z,86.80
2022-09-06T03:21:20.676Z,87.10
2022-09-06T03:23:50.937Z,88.00
2022-09-06T03:26:18.769Z,87.30
2022-09-06T03:28:46.600Z,87.30
2022-09-06T03:31:14.469Z,88.00
2022-09-06T03:33:42.393Z,90.00
2022-09-06T03:36:10.256Z,88.50
2022-09-06T03:38:38.072Z,87.60
2022-09-06T03:41:07.224Z,86.70
2022-09-06T03:43:35.173Z,86.60
2022-09-06T03:46:03.500Z,87.20
2022-09-06T03:48:31.359Z,87.90
2022-09-06T03:50:59.923Z,87.90
2022-09-06T03:53:29.251Z,87.40
2022-09-06T03:55:58.655Z,88.10
2022-09-06T03:58:32.415Z,88.40
2022-09-06T04:01:05.574Z,87.80
2022-09-06T04:03:33.978Z,87.10
2022-09-06T04:06:02.475Z,86.40
2022-09-06T04:08:30.759Z,87.10
2022-09-06T04:10:59.515Z,85.60
2022-09-06T04:13:29.950Z,85.50
2022-09-06T04:15:58.269Z,85.40
2022-09-06T04:18:26.785Z,85.60
2022-09-06T04:20:56.225Z,85.60
2022-09-06T04:23:25.410Z,85.30
2022-09-06T04:25:55.275Z,85.40
2022-09-06T04:28:23.836Z,85.50
2022-09-06T04:30:55.333Z,85.40
2022-09-06T04:33:25.836Z,84.70
2022-09-06T04:35:54.064Z,84.70
2022-09-06T04:38:22.003Z,83.60
2022-09-06T04:40:49.922Z,83.10
2022-09-06T04:43:17.992Z,83.50
2022-09-06T04:45:46.373Z,83.50
2022-09-06T04:48:16.165Z,83.70
2022-09-06T04:50:44.104Z,84.30
2022-09-06T04:53:12.000Z,84.80
2022-09-06T04:55:40.086Z,86.00
2022-09-06T04:58:07.989Z,86.10
2022-09-06T05:00:38.576Z,86.10
2022-09-06T05:03:06.619Z,91.20
2022-09-06T05:05:35.803Z,87.90
2022-09-06T05:08:04.072Z,87.30
2022-09-06T05:10:31.971Z,88.60
2022-09-06T05:12:59.875Z,88.40
2022-09-06T05:15:27.825Z,88.90
2022-09-06T05:18:03.141Z,89.60
2022-09-06T05:20:30.982Z,89.40
2022-09-06T05:23:01.571Z,87.90
2022-09-06T05:25:29.523Z,87.10
2022-09-06T05:27:57.336Z,87.40
2022-09-06T05:30:25.146Z,87.50
2022-09-06T05:32:52.945Z,86.30
2022-09-06T05:35:20.785Z,86.60
2022-09-06T05:37:48.635Z,86.90
2022-09-06T05:40:18.007Z,86.00
2022-09-06T05:42:45.818Z,83.40
2022-09-06T05:45:13.647Z,80.80
2022-09-06T05:47:41.481Z,80.50
2022-09-06T05:50:10.154Z,81.30
2022-09-06T05:52:39.199Z,82.10
2022-09-06T05:55:07.811Z,80.70
2022-09-06T05:57:36.985Z,79.50
2022-09-06T06:00:05.878Z,77.60
2022-09-06T06:02:33.790Z,76.90
2022-09-06T06:05:02.126Z,76.30
2022-09-06T06:07:29.933Z,76.50
2022-09-06T06:09:57.752Z,76.00
2022-09-06T06:12:25.550Z,74.10
2022-09-06T06:14:54.719Z,70.70
2022-09-06T06:17:22.651Z,70.90
2022-09-06T06:19:50.463Z,70.80
2022-09-06T06:22:18.300Z,72.00
2022-09-06T06:24:46.139Z,71.90
2022-09-06T06:27:13.993Z,71.90
2022-09-06T06:29:41.827Z,70.60
2022-09-06T06:32:11.002Z,68.40
2022-09-06T06:34:38.864Z,66.10
2022-09-06T06:37:06.689Z,68.40
2022-09-06T06:39:34.574Z,66.40
2022-09-06T06:42:02.394Z,66.60
2022-09-06T06:44:30.229Z,67.30
2022-09-06T06:46:58.776Z,67.90
2022-09-06T06:49:28.399Z,67.10
2022-09-06T06:51:56.206Z,67.90
2022-09-06T06:54:24.030Z,67.20
2022-09-06T06:56:51.939Z,67.60
2022-09-06T06:59:20.536Z,68.40
2022-09-06T07:01:49.897Z,67.10
2022-09-06T07:04:17.839Z,66.10
2022-09-06T07:12:28.066Z,65.00
2022-09-06T07:14:55.878Z,65.80
2022-09-06T07:17:23.724Z,65.80
2022-09-06T07:22:41.315Z,67.80
2022-09-06T07:25:12.157Z,69.50
2022-09-06T07:27:48.694Z,69.40
2022-09-06T07:30:17.621Z,68.70
2022-09-06T07:32:45.485Z,68.10
2022-09-06T07:35:13.922Z,67.60
2022-09-06T07:37:43.154Z,67.10
2022-09-06T07:40:11.994Z,66.20
2022-09-06T07:42:39.893Z,65.00
2022-09-06T07:45:08.581Z,65.20
2022-09-06T07:53:16.636Z,63.90
2022-09-06T07:55:49.661Z,62.40
2022-09-06T07:58:17.502Z,60.00
2022-09-06T08:00:45.518Z,59.80
2022-09-06T08:03:13.469Z,58.10
2022-09-06T08:11:18.726Z,57.70
2022-09-06T08:13:49.902Z,60.20
2022-09-06T08:16:17.861Z,57.30
2022-09-06T08:18:45.708Z,58.20
2022-09-06T08:21:15.660Z,58.70
2022-09-06T08:23:47.390Z,58.30
2022-09-06T08:26:15.749Z,58.10
2022-09-06T08:28:43.682Z,57.20
2022-09-06T08:31:12.986Z,57.20
2022-09-06T08:33:41.951Z,57.50
2022-09-06T08:36:10.980Z,58.10
2022-09-06T08:38:38.892Z,58.20
2022-09-06T08:41:10.786Z,56.10
2022-09-06T08:43:39.765Z,56.10
2022-09-06T08:46:09.470Z,55.50
2022-09-06T08:48:40.009Z,54.60
2022-09-06T08:51:38.848Z,55.00
2022-09-06T08:54:13.369Z,54.30
2022-09-06T08:56:59.516Z,54.90
2022-09-06T08:59:27.617Z,55.40
2022-09-06T09:02:04.351Z,56.00
2022-09-06T09:04:34.300Z,56.70
2022-09-06T09:07:24.870Z,57.20
2022-09-06T09:09:55.177Z,57.80
2022-09-06T09:12:26.096Z,56.40
2022-09-06T09:14:58.589Z,57.50
2022-09-06T09:17:30.724Z,57.00
2022-09-06T09:19:58.519Z,57.30
2022-09-06T09:22:26.716Z,56.60
2022-09-06T09:24:58.947Z,57.10
2022-09-06T09:27:29.733Z,57.40
2022-09-06T09:32:51.360Z,57.90
2022-09-06T09:35:23.414Z,57.70
2022-09-06T09:38:07.768Z,57.30
2022-09-06T09:40:41.686Z,57.50
2022-09-06T09:43:17.751Z,56.40
2022-09-06T09:45:46.652Z,57.50
2022-09-06T09:48:20.752Z,58.20
2022-09-06T09:50:49.093Z,57.90
2022-09-06T09:53:19.444Z,57.70
2022-09-06T09:55:47.684Z,57.80
2022-09-06T09:58:32.219Z,57.50
2022-09-06T10:01:19.088Z,58.20
2022-09-06T10:09:31.824Z,59.90
2022-09-06T10:12:01.579Z,60.40
2022-09-06T10:14:34.019Z,61.10
2022-09-06T10:17:01.858Z,60.50
2022-09-06T10:19:40.789Z,60.80
2022-09-06T10:22:28.894Z,60.80
2022-09-06T10:25:29.367Z,60.40
2022-09-06T10:28:29.991Z,60.90
2022-09-06T10:31:18.854Z,61.70
2022-09-06T10:33:59.047Z,61.60
2022-09-06T10:36:32.833Z,62.00
2022-09-06T10:39:06.129Z,61.80
2022-09-06T10:41:48.899Z,61.90
2022-09-06T10:44:31.251Z,62.00
2022-09-06T10:47:11.292Z,62.40
2022-09-06T10:49:39.759Z,62.30
2022-09-06T10:52:09.649Z,61.60
2022-09-06T10:54:42.066Z,61.30
2022-09-06T11:00:11.861Z,61.10
2022-09-06T11:02:47.080Z,60.50
2022-09-06T11:11:07.121Z,58.00
2022-09-06T11:13:35.040Z,57.50
2022-09-06T11:16:07.962Z,57.40
2022-09-06T11:18:42.077Z,56.80
2022-09-06T11:21:43.184Z,55.60
2022-09-06T11:24:14.122Z,56.80
2022-09-06T11:26:45.231Z,55.30
2022-09-06T11:29:20.890Z,54.20
2022-09-06T11:34:54.214Z,53.90
2022-09-06T11:37:27.988Z,54.60
2022-09-06T11:40:26.746Z,54.70
2022-09-06T11:43:12.806Z,54.70
2022-09-06T11:45:45.677Z,55.20
2022-09-06T11:48:35.051Z,55.90
2022-09-06T11:51:07.611Z,53.00
2022-09-06T11:53:57.740Z,52.90
2022-09-06T11:56:30.965Z,50.40
2022-09-06T11:59:04.897Z,52.40
2022-09-06T12:01:38.943Z,52.20
2022-09-06T12:04:10.258Z,51.60
2022-09-06T12:06:41.832Z,49.00
2022-09-06T12:09:38.597Z,49.80
2022-09-06T12:12:07.101Z,49.90
2022-09-06T12:14:39.660Z,48.80
2022-09-06T12:17:31.087Z,48.10
2022-09-06T12:20:06.470Z,50.50
2022-09-06T12:23:05.964Z,49.80
2022-09-06T12:25:57.580Z,48.60
2022-09-06T12:28:34.697Z,48.90
2022-09-06T12:31:20.996Z,49.30
2022-09-06T12:33:49.138Z,48.90
2022-09-06T12:36:19.481Z,48.60
2022-09-06T12:38:59.105Z,48.70
2022-09-06T12:41:29.173Z,49.60
2022-09-06T12:43:59.271Z,48.40
2022-09-06T12:46:30.108Z,47.30
2022-09-06T12:49:02.960Z,46.60
2022-09-06T12:51:30.773Z,47.20
2022-09-06T12:54:01.891Z,47.70
2022-09-06T12:56:32.816Z,48.20
2022-09-06T12:59:15.248Z,47.60
2022-09-06T13:01:49.189Z,48.10
2022-09-06T13:04:34.103Z,48.10
2022-09-06T13:07:04.741Z,48.20
2022-09-06T13:09:34.930Z,48.60
2022-09-06T13:12:07.733Z,47.70
2022-09-06T13:14:36.572Z,48.20
2022-09-06T13:17:04.477Z,48.50
2022-09-06T13:19:35.569Z,48.50
2022-09-06T13:22:05.416Z,48.80
2022-09-06T13:24:47.252Z,48.60
2022-09-06T13:27:26.214Z,48.20
2022-09-06T13:29:59.110Z,47.90
2022-09-06T13:32:28.180Z,47.80
2022-09-06T13:34:57.825Z,48.60
2022-09-06T13:37:26.872Z,48.30
2022-09-06T13:39:57.570Z,49.40
2022-09-06T13:42:28.682Z,49.20
2022-09-06T13:45:01.413Z,48.90
2022-09-06T13:47:30.350Z,50.60
2022-09-06T13:49:58.184Z,51.40
2022-09-06T13:52:26.028Z,51.10
2022-09-06T13:54:55.680Z,51.60
2022-09-06T13:57:24.621Z,53.00
2022-09-06T13:59:52.756Z,54.10
2022-09-06T14:02:20.928Z,54.50
2022-09-06T14:04:50.167Z,54.20
2022-09-06T14:07:18.180Z,52.20
2022-09-06T14:09:47.413Z,49.70
2022-09-06T14:12:16.587Z,47.90
2022-09-06T14:14:45.355Z,48.00
2022-09-06T14:17:13.175Z,46.90
2022-09-06T14:19:41.400Z,47.20
2022-09-06T14:22:09.201Z,48.90
2022-09-06T14:24:36.995Z,49.40
2022-09-06T14:27:06.990Z,49.90
2022-09-06T14:29:36.724Z,50.10
2022-09-06T14:32:04.934Z,49.50
2022-09-06T14:34:32.785Z,49.90
2022-09-06T14:37:00.582Z,49.20
2022-09-06T14:39:28.566Z,49.20
2022-09-06T14:41:56.459Z,49.20
2022-09-06T14:44:24.365Z,48.70
2022-09-06T14:46:54.592Z,47.80
2022-09-06T14:49:22.621Z,48.10
2022-09-06T14:51:53.199Z,48.20
2022-09-06T14:54:24.161Z,47.50
2022-09-06T14:56:55.160Z,47.90
2022-09-06T14:59:22.979Z,46.40
2022-09-06T15:01:50.860Z,45.60
2022-09-06T15:04:20.142Z,46.00
2022-09-06T15:06:50.617Z,45.90
2022-09-06T15:09:19.145Z,45.60
2022-09-06T15:11:48.596Z,46.40
2022-09-06T15:14:18.146Z,45.60
2022-09-06T15:16:47.678Z,45.90
2022-09-06T15:19:16.762Z,47.60
2022-09-06T15:21:46.820Z,47.60
2022-09-06T15:24:15.131Z,48.40
2022-09-06T15:26:43.819Z,49.50
2022-09-06T15:29:12.668Z,49.00
2022-09-06T15:31:40.883Z,50.00
2022-09-06T15:34:09.763Z,50.00
2022-09-06T15:36:38.259Z,49.90
2022-09-06T15:39:07.545Z,50.30
2022-09-06T15:41:37.043Z,51.00
2022-09-06T15:44:09.451Z,51.80
2022-09-06T15:46:46.689Z,50.50
2022-09-06T15:49:17.221Z,50.50
2022-09-06T15:51:45.675Z,50.10
2022-09-06T15:54:16.147Z,50.50
2022-09-06T15:56:43.838Z,50.50
2022-09-06T15:59:12.716Z,51.30
2022-09-06T16:01:41.079Z,51.30
2022-09-06T16:04:08.956Z,51.70
2022-09-06T16:06:39.622Z,51.80
2022-09-06T16:09:09.789Z,52.30
2022-09-06T16:11:39.160Z,53.10
2022-09-06T16:14:08.957Z,53.70
2022-09-06T16:16:37.199Z,54.60
2022-09-06T16:19:05.325Z,54.90
2022-09-06T16:21:35.366Z,54.10
2022-09-06T16:24:04.931Z,54.40
2022-09-06T16:26:34.148Z,54.80
2022-09-06T16:29:04.733Z,55.20
2022-09-06T16:31:39.100Z,55.40
2022-09-06T16:34:07.813Z,55.00
2022-09-06T16:36:35.703Z,55.00
2022-09-06T16:39:03.832Z,54.40
2022-09-06T16:41:38.820Z,53.40
2022-09-06T16:44:08.390Z,53.00
2022-09-06T16:46:36.279Z,51.50
2022-09-06T16:49:04.510Z,52.30
2022-09-06T16:51:32.672Z,52.40
2022-09-06T16:54:01.535Z,52.50
2022-09-06T16:56:33.526Z,53.00
2022-09-06T16:59:03.258Z,53.60
2022-09-06T17:01:32.956Z,53.80
2022-09-06T17:04:02.178Z,53.50
2022-09-06T17:06:30.409Z,54.20
2022-09-06T17:08:59.195Z,55.00
2022-09-06T17:11:28.836Z,55.60
2022-09-06T17:13:57.515Z,55.80
2022-09-06T17:16:43.880Z,56.10
2022-09-06T17:19:13.906Z,56.00
2022-09-06T17:21:42.452Z,56.30
2022-09-06T17:24:10.632Z,56.50
2022-09-06T17:26:40.200Z,56.00
2022-09-06T17:29:09.052Z,56.60
2022-09-06T17:31:37.937Z,57.00
2022-09-06T17:34:07.625Z,56.60
2022-09-06T17:36:37.600Z,56.80
2022-09-06T17:39:07.687Z,57.20
2022-09-06T17:41:38.811Z,57.40
2022-09-06T17:44:07.707Z,58.20
2022-09-06T17:46:35.565Z,59.20
2022-09-06T17:49:05.312Z,60.30
2022-09-06T17:51:33.828Z,60.70
2022-09-06T17:54:03.287Z,61.20
2022-09-06T17:56:31.309Z,61.80
2022-09-06T17:59:01.671Z,62.70
2022-09-06T18:01:32.055Z,63.20
2022-09-06T18:04:00.787Z,63.50
2022-09-06T18:06:30.330Z,63.90
2022-09-06T18:09:00.973Z,64.30
2022-09-06T18:11:31.994Z,64.50
2022-09-06T18:14:01.307Z,65.00
2022-09-06T18:16:30.556Z,65.80
2022-09-06T18:19:00.377Z,66.20
2022-09-06T18:21:30.924Z,66.50
2022-09-06T18:23:59.631Z,67.30
2022-09-06T18:26:27.834Z,67.20
2022-09-06T18:28:57.177Z,66.50
2022-09-06T18:31:27.206Z,65.50
2022-09-06T18:33:58.040Z,65.30
2022-09-06T18:36:31.167Z,64.90
2022-09-06T18:39:02.664Z,64.10
2022-09-06T18:41:48.097Z,64.00
2022-09-06T18:44:17.925Z,63.90
2022-09-06T18:46:45.938Z,63.90
2022-09-06T18:49:15.445Z,63.60
2022-09-06T18:51:44.609Z,63.20
2022-09-06T18:54:13.170Z,63.00
2022-09-06T18:56:40.991Z,63.60
2022-09-06T18:59:10.746Z,63.90
2022-09-06T19:01:40.710Z,64.50
2022-09-06T19:04:08.998Z,64.90
2022-09-06T19:06:38.090Z,65.00
2022-09-06T19:09:08.426Z,65.10
2022-09-06T19:11:36.745Z,65.50
2022-09-06T19:14:05.631Z,65.80
2022-09-06T19:16:33.626Z,65.70
2022-09-06T19:19:05.886Z,65.90
2022-09-06T19:21:36.743Z,66.40
2022-09-06T19:24:10.289Z,66.40
2022-09-06T19:26:39.536Z,66.80
2022-09-06T19:29:09.856Z,67.00
2022-09-06T19:31:38.681Z,67.00
2022-09-06T19:34:08.453Z,67.30
2022-09-06T19:36:36.948Z,68.70
2022-09-06T19:39:07.278Z,67.60
2022-09-06T19:41:38.847Z,68.00
2022-09-06T19:44:08.652Z,69.40
2022-09-06T19:46:37.173Z,69.10
2022-09-06T19:49:08.044Z,68.80
2022-09-06T19:51:37.936Z,69.30
2022-09-06T19:54:06.491Z,69.30
2022-09-06T19:56:35.675Z,70.10
2022-09-06T19:59:06.076Z,70.40
2022-09-06T20:01:35.228Z,70.20
2022-09-06T20:04:05.198Z,69.70
2022-09-06T20:06:33.104Z,69.90
2022-09-06T20:09:03.531Z,68.60
2022-09-06T20:11:33.322Z,68.60
2022-09-06T20:14:01.603Z,68.00
2022-09-06T20:16:30.377Z,66.20
2022-09-06T20:18:59.877Z,65.90
2022-09-06T20:21:28.285Z,64.80
2022-09-06T20:23:58.087Z,66.80
2022-09-06T20:26:30.291Z,66.70
2022-09-06T20:28:59.801Z,67.30
2022-09-06T20:31:29.194Z,66.10
2022-09-06T20:33:58.986Z,66.40
2022-09-06T20:36:26.927Z,66.50
2022-09-06T20:38:55.259Z,66.10
2022-09-06T20:41:24.652Z,66.60
2022-09-06T20:43:55.113Z,67.00
2022-09-06T20:46:24.432Z,66.00
2022-09-06T20:48:52.782Z,67.50
2022-09-06T20:51:22.636Z,67.70
2022-09-06T20:53:53.807Z,67.90
2022-09-06T20:56:23.988Z,67.70
2022-09-06T20:58:55.303Z,67.30
2022-09-06T21:01:24.929Z,68.30
2022-09-06T21:03:54.296Z,67.20
2022-09-06T21:06:22.964Z,67.00
2022-09-06T21:08:51.503Z,68.10
2022-09-06T21:11:20.115Z,68.60
2022-09-06T21:13:50.623Z,69.80
2022-09-06T21:16:24.416Z,70.10
2022-09-06T21:18:53.129Z,70.70
2022-09-06T21:21:21.440Z,71.60
2022-09-06T21:23:50.152Z,71.60
2022-09-06T21:26:18.535Z,72.10
2022-09-06T21:28:47.765Z,72.70
2022-09-06T21:31:18.164Z,72.00
2022-09-06T21:33:49.002Z,72.60
2022-09-06T21:36:18.786Z,72.40
2022-09-06T21:38:48.912Z,70.30
2022-09-06T21:41:18.361Z,70.40
2022-09-06T21:43:46.931Z,68.00
2022-09-06T21:46:16.446Z,69.40
2022-09-06T21:48:46.005Z,67.80
2022-09-06T21:51:17.613Z,68.10
2022-09-06T21:53:47.149Z,69.60
2022-09-06T21:56:15.692Z,68.50
2022-09-06T21:58:44.755Z,67.90
2022-09-06T22:01:12.658Z,69.30
2022-09-06T22:03:40.587Z,68.00
2022-09-06T22:06:13.363Z,68.40
2022-09-06T22:08:43.872Z,68.80
2022-09-06T22:11:12.849Z,70.40
2022-09-06T22:13:41.933Z,71.40
2022-09-06T22:16:10.471Z,68.20
2022-09-06T22:18:38.917Z,67.90
2022-09-06T22:21:09.387Z,68.30
2022-09-06T22:23:37.527Z,68.60
2022-09-06T22:26:08.737Z,68.60
2022-09-06T22:28:37.757Z,68.90
2022-09-06T22:31:06.307Z,69.10
2022-09-06T22:33:34.868Z,69.30
2022-09-06T22:36:03.145Z,69.20
2022-09-06T22:38:31.927Z,65.00
2022-09-06T22:41:00.132Z,63.10
2022-09-06T22:43:29.333Z,62.40
2022-09-06T22:46:03.900Z,61.80
2022-09-06T22:48:31.858Z,61.90
2022-09-06T22:51:00.582Z,62.00
2022-09-06T22:53:29.025Z,62.60
2022-09-06T22:55:57.192Z,62.60
2022-09-06T22:58:26.865Z,62.70
2022-09-06T23:00:56.588Z,63.10
2022-09-06T23:03:24.557Z,63.00
2022-09-06T23:05:52.410Z,63.40
2022-09-06T23:08:20.310Z,63.00
2022-09-06T23:10:48.364Z,62.80
2022-09-06T23:13:17.444Z,62.50
2022-09-06T23:15:46.428Z,62.30
2022-09-06T23:18:16.165Z,62.50
2022-09-06T23:20:43.997Z,64.90
2022-09-06T23:23:11.843Z,69.60
2022-09-06T23:25:40.366Z,72.90
2022-09-06T23:28:08.231Z,75.90
2022-09-06T23:30:38.626Z,77.80
2022-09-06T23:33:06.473Z,80.40
2022-09-06T23:35:35.646Z,81.40
2022-09-06T23:38:03.490Z,81.90
2022-09-06T23:40:31.320Z,83.00
2022-09-06T23:42:59.131Z,83.40
2022-09-06T23:45:27.300Z,84.20
2022-09-06T23:47:55.142Z,83.40
2022-09-06T23:50:22.982Z,81.80
2022-09-06T23:52:52.167Z,78.80
2022-09-06T23:55:20.007Z,76.90
2022-09-06T23:57:47.886Z,76.70
